Time;durP1;ratioP1;P1;durP2;ratioP2;P2;SDS_P1;SDS_P2;PMS_P1;PMS_P2;Temp;Humidity;BMP_temperature;BMP_pressure;BME280_temperature;BME280_humidity;BME280_pressure;Samples;Min_cycle;Max_cycle;Signal;HPM_P1;HPM_P2
2024/04/11 00:01:24;;;;;;;;;;;;;;;12.03;100.00;101443.47;5495316;26;19931;-87
2024/04/11 00:03:49;;;;;;;;;;;;;;;12.00;100.00;101451.91;5494744;26;20258;-86
2024/04/11 00:06:15;;;;;;;;;;;;;;;11.98;100.00;101453.09;5494538;26;19928;-86
2024/04/11 00:08:41;;;;;;;;;;;;;;;11.95;100.00;101451.56;5495239;26;19935;-86
2024/04/11 00:11:06;;;;;;;;;;;;;;;11.95;100.00;101462.34;5526217;26;19933;-86
2024/04/11 00:13:31;;;;;;;;;;;;;;;11.95;100.00;101464.22;5495715;26;19928;-86
2024/04/11 00:15:57;;;;;;;;;;;;;;;11.94;100.00;101449.91;5525714;26;19963;-87
2024/04/11 00:18:23;;;;;;;;;;;;;;;11.94;100.00;101447.19;5494889;26;19927;-87
2024/04/11 00:20:49;;;;;;;;;;;;;;;11.95;100.00;101458.81;5464513;26;19931;-86
2024/04/11 00:23:14;;;;;;;;;;;;;;;11.94;100.00;101457.97;5494836;26;19960;-86
2024/04/11 00:25:42;;;;;;;;;;;;;;;11.95;100.00;101453.44;5525892;26;19927;-86
2024/04/11 00:28:09;;;;;;;;;;;;;;;11.96;100.00;101455.09;5495442;26;20356;-88
2024/04/11 00:30:35;;;;;;;;;;;;;;;11.96;100.00;101460.47;5495370;26;19995;-86
2024/04/11 00:33:01;;;;;;;;;;;;;;;11.96;100.00;101452.41;5525817;26;19927;-86
2024/04/11 00:35:27;;;;;;;;;;;;;;;11.95;100.00;101462.34;5494910;26;19928;-86
2024/04/11 00:37:53;;;;;;;;;;;;;;;11.92;100.00;101464.53;5494529;26;19927;-86
2024/04/11 00:40:20;;;;;;;;;;;;;;;11.92;100.00;101470.78;5494543;26;19942;-86
2024/04/11 00:42:45;;;;;;;;;;;;;;;11.91;100.00;101470.91;5494703;26;19934;-87
2024/04/11 00:45:10;;;;;;;;;;;;;;;11.90;100.00;101466.56;5494694;26;19931;-87
2024/04/11 00:47:40;;;;;;;;;;;;;;;11.88;100.00;101459.50;5464103;26;20366;-88
2024/04/11 00:50:06;;;;;;;;;;;;;;;11.90;100.00;101463.88;5525112;26;19935;-86
2024/04/11 00:52:33;;;;;;;;;;;;;;;11.90;100.00;101455.78;5494347;26;19931;-86
2024/04/11 00:54:59;;;;;;;;;;;;;;;11.88;100.00;101459.50;5526649;26;19928;-87
2024/04/11 00:57:25;;;;;;;;;;;;;;;11.86;100.00;101453.41;5525015;26;20259;-86
2024/04/11 00:59:51;;;;;;;;;;;;;;;11.87;100.00;101451.56;5494322;26;19927;-87
2024/04/11 01:02:16;;;;;;;;;;;;;;;11.86;100.00;101469.59;5464067;26;19996;-86
2024/04/11 01:04:44;;;;;;;;;;;;;;;11.86;100.00;101480.38;5494049;26;19935;-86
2024/04/11 01:07:10;;;;;;;;;;;;;;;11.84;100.00;101495.81;5494429;26;19928;-86
2024/04/11 01:09:38;;;;;;;;;;;;;;;11.82;100.00;101503.22;5494216;26;19943;-86
2024/04/11 01:12:03;;;;;;;;;;;;;;;11.82;100.00;101514.00;5525047;26;19976;-85
2024/04/11 01:14:29;;;;;;;;;;;;;;;11.81;100.00;101525.81;5494138;26;19932;-86
2024/04/11 01:16:55;;;;;;;;;;;;;;;11.83;100.00;101529.19;5463565;26;20376;-86
2024/04/11 01:19:21;;;;;;;;;;;;;;;11.83;100.00;101529.19;5498255;26;19956;-86
2024/04/11 01:21:48;;;;;;;;;;;;;;;11.85;100.00;101531.69;5528321;26;19935;-87
2024/04/11 01:24:14;;;;;;;;;;;;;;;11.83;100.00;101531.88;5528410;26;19928;-86
2024/04/11 01:26:40;;;;;;;;;;;;;;;11.80;100.00;101532.22;5497916;26;20301;-85
2024/04/11 01:29:08;;;;;;;;;;;;;;;11.80;100.00;101532.22;5497512;26;19932;-87
2024/04/11 01:31:34;;;;;;;;;;;;;;;11.78;100.00;101534.22;5528153;26;19938;-85
2024/04/11 01:34:00;;;;;;;;;;;;;;;11.78;100.00;101531.53;5497427;26;20350;-86
2024/04/11 01:36:25;;;;;;;;;;;;;;;11.77;100.00;101529.81;5466807;26;19927;-86
2024/04/11 01:38:50;;;;;;;;;;;;;;;11.73;100.00;101530.34;5528423;26;19939;-86
2024/04/11 01:41:16;;;;;;;;;;;;;;;11.74;100.00;101529.31;5497770;26;19934;-88
2024/04/11 01:43:41;;;;;;;;;;;;;;;11.74;100.00;101535.53;5497297;26;20370;-87
2024/04/11 01:46:07;;;;;;;;;;;;;;;11.71;100.00;101538.56;5497140;26;20003;-87
2024/04/11 01:48:33;;;;;;;;;;;;;;;11.68;100.00;101536.22;5466900;26;19932;-86
2024/04/11 01:50:58;;;;;;;;;;;;;;;11.72;100.00;101542.09;5497895;26;19943;-86
2024/04/11 01:53:24;;;;;;;;;;;;;;;11.71;100.00;101532.34;5496930;26;19934;-87
2024/04/11 01:55:49;;;;;;;;;;;;;;;11.70;100.00;101526.13;5527901;26;19935;-87
2024/04/11 01:58:18;;;;;;;;;;;;;;;11.70;100.00;101530.66;5496972;26;19967;-85
2024/04/11 02:00:43;;;;;;;;;;;;;;;11.71;100.00;101526.94;5528015;26;19935;-85
2024/04/11 02:03:09;;;;;;;;;;;;;;;11.72;100.00;101536.72;5466685;26;19935;-86
2024/04/11 02:05:35;;;;;;;;;;;;;;;11.70;100.00;101534.19;5497112;26;19935;-87
2024/04/11 02:08:03;;;;;;;;;;;;;;;11.71;100.00;101527.78;5496944;26;19927;-88
2024/04/11 02:10:32;;;;;;;;;;;;;;;11.74;100.00;101537.41;5466519;26;19928;-87
2024/04/11 02:12:58;;;;;;;;;;;;;;;11.75;100.00;101533.69;5498370;26;19943;-85
2024/04/11 02:15:24;;;;;;;;;;;;;;;11.72;100.00;101534.84;5504336;25;19985;-86
2024/04/11 02:17:49;;;;;;;;;;;;;;;11.70;100.00;101536.88;5522368;25;19926;-84
2024/04/11 02:20:16;;;;;;;;;;;;;;;11.67;100.00;101529.13;5512272;25;19927;-87
2024/04/11 02:22:42;;;;;;;;;;;;;;;11.68;100.00;101530.81;5497006;26;20285;-85
2024/04/11 02:25:07;;;;;;;;;;;;;;;11.68;100.00;101524.59;5466290;26;19927;-86
2024/04/11 02:27:34;;;;;;;;;;;;;;;11.66;100.00;101530.13;5496971;26;19934;-88
2024/04/11 02:29:59;;;;;;;;;;;;;;;11.64;100.00;101518.66;5496502;26;19996;-86
2024/04/11 02:32:27;;;;;;;;;;;;;;;11.64;100.00;101521.38;5496516;26;19939;-86
2024/04/11 02:34:53;;;;;;;;;;;;;;;11.59;100.00;101524.56;5466821;26;19928;-86
2024/04/11 02:37:18;;;;;;;;;;;;;;;11.56;100.00;101521.34;5496622;26;19927;-86
2024/04/11 02:39:44;;;;;;;;;;;;;;;11.56;100.00;101527.56;5496494;26;19935;-86
2024/04/11 02:42:10;;;;;;;;;;;;;;;11.53;100.00;101537.84;5496704;26;19995;-87
2024/04/11 02:44:35;;;;;;;;;;;;;;;11.54;100.00;101539.53;5466069;26;20381;-85
2024/04/11 02:47:01;;;;;;;;;;;;;;;11.51;100.00;101537.16;5527209;26;19928;-86
2024/04/11 02:49:27;;;;;;;;;;;;;;;11.51;100.00;101537.16;5496718;26;19994;-86
2024/04/11 02:51:53;;;;;;;;;;;;;;;11.49;100.00;101545.41;5496200;26;20265;-86
2024/04/11 02:54:19;;;;;;;;;;;;;;;11.48;100.00;101550.94;5527455;26;19959;-86
2024/04/11 02:56:45;;;;;;;;;;;;;;;11.49;100.00;101552.66;5527041;26;20402;-87
2024/04/11 02:59:11;;;;;;;;;;;;;;;11.47;100.00;101551.97;5496626;26;19939;-85
2024/04/11 03:01:40;;;;;;;;;;;;;;;11.48;100.00;101557.16;5496177;26;20298;-87
2024/04/11 03:04:05;;;;;;;;;;;;;;;11.48;100.00;101569.78;5496126;26;20024;-85
2024/04/11 03:06:31;;;;;;;;;;;;;;;11.46;100.00;101572.66;5496051;26;19939;-87
2024/04/11 03:08:56;;;;;;;;;;;;;;;11.43;100.00;101568.44;5465729;26;19927;-86
2024/04/11 03:11:23;;;;;;;;;;;;;;;11.45;100.00;101582.56;5526840;26;20251;-86
2024/04/11 03:13:50;;;;;;;;;;;;;;;11.47;100.00;101577.03;5466160;26;19934;-86
2024/04/11 03:16:15;;;;;;;;;;;;;;;11.51;100.00;101588.31;5465582;26;19931;-86
2024/04/11 03:18:41;;;;;;;;;;;;;;;11.52;100.00;101576.56;5526761;26;19934;-86
2024/04/11 03:21:06;;;;;;;;;;;;;;;11.54;100.00;101578.09;5495758;26;19935;-85
2024/04/11 03:23:32;;;;;;;;;;;;;;;11.54;100.00;101578.09;5526552;26;19963;-85
2024/04/11 03:25:58;;;;;;;;;;;;;;;11.51;100.00;101572.16;5495884;26;19927;-86
2024/04/11 03:28:24;;;;;;;;;;;;;;;11.44;100.00;101572.81;5465454;26;19927;-86
2024/04/11 03:30:56;;;;;;;;;;;;;;;11.39;100.00;101575.16;5495642;26;19934;-86
2024/04/11 03:33:22;;;;;;;;;;;;;;;11.40;100.00;101575.97;5496221;26;19928;-85
2024/04/11 03:35:54;;;;;;;;;;;;;;;11.47;100.00;101586.97;5465467;26;20355;-86
2024/04/11 03:38:20;;;;;;;;;;;;;;;11.52;100.00;101590.88;5495656;26;19927;-86
2024/04/11 03:40:55;;;;;;;;;;;;;;;11.53;100.00;101589.84;5464088;26;19934;-86
2024/04/11 03:43:22;;;;;;;;;;;;;;;11.54;100.00;101582.63;5526235;26;19927;-86
2024/04/11 03:45:47;;;;;;;;;;;;;;;11.53;100.00;101576.38;5465775;26;19927;-86
2024/04/11 03:48:13;;;;;;;;;;;;;;;11.52;100.00;101576.56;5526156;26;20369;-85
2024/04/11 03:50:39;;;;;;;;;;;;;;;11.49;100.00;101577.72;5495255;26;20287;-86
2024/04/11 03:53:05;;;;;;;;;;;;;;;11.51;100.00;101585.63;5495391;26;19928;-86
2024/04/11 03:55:31;;;;;;;;;;;;;;;11.50;100.00;101578.56;5495560;26;19939;-86
2024/04/11 03:57:58;;;;;;;;;;;;;;;11.50;100.00;101592.88;5465080;26;19938;-85
2024/04/11 04:00:24;;;;;;;;;;;;;;;11.54;100.00;101596.09;5496133;26;19927;-86
2024/04/11 04:02:50;;;;;;;;;;;;;;;11.51;100.00;101601.78;5495397;26;19927;-85
2024/04/11 04:05:15;;;;;;;;;;;;;;;11.54;100.00;101612.25;5495494;26;19931;-85
2024/04/11 04:07:41;;;;;;;;;;;;;;;11.55;100.00;101608.56;5495768;26;19975;-86
2024/04/11 04:10:07;;;;;;;;;;;;;;;11.52;100.00;101604.31;5494938;26;20311;-85
2024/04/11 04:12:32;;;;;;;;;;;;;;;11.55;100.00;101608.56;5494951;26;20002;-85
2024/04/11 04:14:57;;;;;;;;;;;;;;;11.54;100.00;101609.56;5525795;26;19928;-85
2024/04/11 04:17:24;;;;;;;;;;;;;;;11.53;100.00;101611.41;5525955;26;19928;-85
2024/04/11 04:19:50;;;;;;;;;;;;;;;11.49;100.00;101598.44;5464513;26;19927;-85
2024/04/11 04:22:16;;;;;;;;;;;;;;;11.44;100.00;101601.59;5525522;26;19935;-85
2024/04/11 04:24:41;;;;;;;;;;;;;;;11.38;100.00;101602.25;5494782;26;19927;-85
2024/04/11 04:27:07;;;;;;;;;;;;;;;11.36;100.00;101604.25;5525463;26;19939;-85
2024/04/11 04:29:33;;;;;;;;;;;;;;;11.35;100.00;101608.81;5464283;26;19927;-85
2024/04/11 04:31:59;;;;;;;;;;;;;;;11.36;100.00;101612.34;5525508;26;19927;-85
2024/04/11 04:34:25;;;;;;;;;;;;;;;11.38;100.00;101621.94;5465085;26;19938;-85
2024/04/11 04:36:51;;;;;;;;;;;;;;;11.37;100.00;101632.84;5506293;25;20133;-86
2024/04/11 04:39:16;;;;;;;;;;;;;;;11.38;100.00;101640.78;5520045;25;19941;-84
2024/04/11 04:41:42;;;;;;;;;;;;;;;11.38;100.00;101640.78;5503491;26;19995;-86
2024/04/11 04:44:08;;;;;;;;;;;;;;;11.38;100.00;101651.56;5494995;26;19927;-86
2024/04/11 04:46:33;;;;;;;;;;;;;;;11.38;100.00;101646.16;5494542;26;19932;-85
2024/04/11 04:49:02;;;;;;;;;;;;;;;11.36;100.00;101647.34;5494456;26;19928;-85
2024/04/11 04:51:28;;;;;;;;;;;;;;;11.35;100.00;101643.81;5496001;26;19931;-85
2024/04/11 04:53:54;;;;;;;;;;;;;;;11.35;100.00;101634.84;5498154;26;19995;-85
2024/04/11 04:56:22;;;;;;;;;;;;;;;11.32;100.00;101635.19;5528928;26;20266;-86
2024/04/11 04:58:49;;;;;;;;;;;;;;;11.28;100.00;101633.81;5498552;26;20326;-86
2024/04/11 05:01:18;;;;;;;;;;;;;;;11.25;100.00;101624.22;5467808;26;19934;-85
2024/04/11 05:03:44;;;;;;;;;;;;;;;11.25;100.00;101644.91;5467357;26;19927;-85
2024/04/11 05:06:12;;;;;;;;;;;;;;;11.25;100.00;101653.00;5528657;26;20366;-86
2024/04/11 05:08:44;;;;;;;;;;;;;;;11.23;100.00;101661.22;5498482;26;19927;-85
2024/04/11 05:11:12;;;;;;;;;;;;;;;11.23;100.00;101674.69;5528826;26;19927;-84
2024/04/11 05:13:38;;;;;;;;;;;;;;;11.23;100.00;101680.06;5468041;26;19927;-85
2024/04/11 05:16:06;;;;;;;;;;;;;;;11.21;100.00;101673.97;5497594;26;19927;-85
2024/04/11 05:18:39;;;;;;;;;;;;;;;11.19;100.00;101682.22;5467863;26;20373;-86
2024/04/11 05:21:08;;;;;;;;;;;;;;;11.18;100.00;101682.38;5528459;26;19935;-86
2024/04/11 05:23:34;;;;;;;;;;;;;;;11.16;100.00;101676.31;5467327;26;19939;-85
2024/04/11 05:26:04;;;;;;;;;;;;;;;11.13;100.00;101688.22;5497595;26;20262;-85
2024/04/11 05:28:35;;;;;;;;;;;;;;;11.14;100.00;101702.53;5498573;26;19938;-85
2024/04/11 05:31:18;;;;;;;;;;;;;;;11.12;100.00;101704.53;5501293;26;19928;-86
2024/04/11 05:33:44;;;;;;;;;;;;;;;11.11;100.00;101708.22;5467600;26;19939;-85
2024/04/11 05:36:12;;;;;;;;;;;;;;;11.10;100.00;101714.63;5497211;26;20019;-86
2024/04/11 05:38:41;;;;;;;;;;;;;;;11.11;100.00;101725.22;5467631;26;19959;-86
2024/04/11 05:41:09;;;;;;;;;;;;;;;11.11;100.00;101717.13;5466812;26;20261;-86
2024/04/11 05:43:35;;;;;;;;;;;;;;;11.08;100.00;101722.84;5497447;26;19947;-86
2024/04/11 05:46:02;;;;;;;;;;;;;;;11.07;100.00;101723.84;5497405;26;20370;-85
2024/04/11 05:48:28;;;;;;;;;;;;;;;11.06;100.00;101710.53;5497834;26;20006;-85
2024/04/11 05:50:54;;;;;;;;;;;;;;;11.05;100.00;101709.69;5497454;26;20373;-86
2024/04/11 05:53:20;;;;;;;;;;;;;;;11.05;100.00;101706.16;5497264;26;20393;-85
2024/04/11 05:55:46;;;;;;;;;;;;;;;11.05;100.00;101698.94;5528217;26;19938;-85
2024/04/11 05:58:12;;;;;;;;;;;;;;;11.04;100.00;101691.88;5497106;26;19932;-85
2024/04/11 06:00:39;;;;;;;;;;;;;;;11.07;100.00;101688.03;5466694;26;19934;-85
2024/04/11 06:03:08;;;;;;;;;;;;;;;11.08;100.00;101674.38;5496405;26;19934;-86
2024/04/11 06:05:38;;;;;;;;;;;;;;;11.08;100.00;101670.84;5528416;26;19939;-86
2024/04/11 06:08:05;;;;;;;;;;;;;;;11.08;100.00;101684.31;5528394;26;19928;-85
2024/04/11 06:10:31;;;;;;;;;;;;;;;11.09;100.00;101697.63;5527537;26;19959;-87
2024/04/11 06:12:56;;;;;;;;;;;;;;;11.12;100.00;101712.63;5496758;26;19939;-86
2024/04/11 06:15:21;;;;;;;;;;;;;;;11.16;100.00;101709.44;5496911;26;20327;-86
2024/04/11 06:17:47;;;;;;;;;;;;;;;11.18;100.00;101702.06;5497110;26;19935;-85
2024/04/11 06:20:16;;;;;;;;;;;;;;;11.21;100.00;101706.28;5466734;26;19934;-84
2024/04/11 06:22:46;;;;;;;;;;;;;;;11.22;100.00;101697.22;5496493;26;19935;-85
2024/04/11 06:25:12;;;;;;;;;;;;;;;11.26;100.00;101697.75;5498496;26;19927;-85
2024/04/11 06:27:40;;;;;;;;;;;;;;;11.32;100.00;101694.41;5465952;26;20357;-85
2024/04/11 06:30:06;;;;;;;;;;;;;;;11.39;100.00;101699.00;5496900;26;19938;-85
2024/04/11 06:32:31;;;;;;;;;;;;;;;11.44;100.00;101694.00;5496428;26;19927;-85
2024/04/11 06:34:58;;;;;;;;;;;;;;;11.45;100.00;101684.91;5496355;26;19927;-87
2024/04/11 06:37:24;;;;;;;;;;;;;;;11.47;100.00;101692.84;5527138;26;19935;-86
2024/04/11 06:39:50;;;;;;;;;;;;;;;11.49;100.00;101681.91;5466201;26;20373;-86
2024/04/11 06:42:17;;;;;;;;;;;;;;;11.50;100.00;101687.13;5496163;26;19928;-85
2024/04/11 06:44:48;;;;;;;;;;;;;;;11.50;100.00;101711.38;5466136;26;19931;-85
2024/04/11 06:47:14;;;;;;;;;;;;;;;11.49;100.00;101727.72;5498271;26;20253;-86
2024/04/11 06:49:41;;;;;;;;;;;;;;;11.47;100.00;101732.41;5527201;26;19935;-86
2024/04/11 06:52:12;;;;;;;;;;;;;;;11.45;100.00;101730.69;5496514;26;19995;-86
2024/04/11 06:54:40;;;;;;;;;;;;;;;11.45;100.00;101724.47;5500225;26;19931;-86
2024/04/11 06:57:07;;;;;;;;;;;;;;;11.46;100.00;101731.56;5497856;26;19934;-86
2024/04/11 06:59:33;;;;;;;;;;;;;;;11.48;100.00;101732.22;5498247;26;19928;-84
2024/04/11 07:01:58;;;;;;;;;;;;;;;11.53;100.00;101739.84;5550807;26;19934;-84
2024/04/11 07:04:24;;;;;;;;;;;;;;;11.63;100.00;101733.34;5519032;26;19936;-87
2024/04/11 07:06:49;;;;;;;;;;;;;;;11.73;100.00;101729.72;5468256;26;19927;-86
2024/04/11 07:09:15;;;;;;;;;;;;;;;11.84;100.00;101732.94;5498307;26;20246;-86
2024/04/11 07:11:40;;;;;;;;;;;;;;;11.99;100.00;101735.09;5497851;26;20270;-85
2024/04/11 07:14:11;;;;;;;;;;;;;;;12.15;100.00;101728.94;5467325;26;19927;-86
2024/04/11 07:16:40;;;;;;;;;;;;;;;12.34;100.00;101722.44;5496119;26;19931;-86
2024/04/11 07:19:08;;;;;;;;;;;;;;;12.45;100.00;101717.56;5498132;26;19956;-86
2024/04/11 07:21:38;;;;;;;;;;;;;;;12.51;100.00;101716.06;5528632;26;19933;-85
2024/04/11 07:24:04;;;;;;;;;;;;;;;12.53;100.00;101716.72;5498096;26;19936;-86
2024/04/11 07:26:30;;;;;;;;;;;;;;;12.67;100.00;101717.94;5467247;26;19942;-86
2024/04/11 07:29:03;;;;;;;;;;;;;;;12.83;100.00;101717.13;5497080;26;19959;-86
2024/04/11 07:31:29;;;;;;;;;;;;;;;13.06;100.00;101712.75;5466461;26;19936;-86
2024/04/11 07:33:55;;;;;;;;;;;;;;;13.12;100.00;101711.22;5527376;26;19935;-86
2024/04/11 07:36:22;;;;;;;;;;;;;;;13.20;100.00;101719.31;5496364;26;20418;-86
2024/04/11 07:38:48;;;;;;;;;;;;;;;13.27;100.00;101725.75;5465519;26;20000;-86
2024/04/11 07:41:17;;;;;;;;;;;;;;;13.21;100.00;101718.31;5526660;26;20397;-86
2024/04/11 07:43:46;;;;;;;;;;;;;;;13.25;100.00;101706.16;5496295;26;19928;-86
2024/04/11 07:46:13;;;;;;;;;;;;;;;13.52;100.00;101712.22;5496232;26;19956;-87
2024/04/11 07:48:47;;;;;;;;;;;;;;;13.90;100.00;101710.59;5496293;26;19927;-86
2024/04/11 07:51:16;;;;;;;;;;;;;;;14.07;100.00;101714.91;5526702;26;19927;-86
2024/04/11 07:53:43;;;;;;;;;;;;;;;14.08;100.00;101724.75;5526305;26;20020;-87
2024/04/11 07:56:09;;;;;;;;;;;;;;;13.94;100.00;101722.75;5466005;26;19934;-86
2024/04/11 07:58:35;;;;;;;;;;;;;;;13.87;100.00;101735.28;5526352;26;19928;-86
2024/04/11 08:01:02;;;;;;;;;;;;;;;13.84;100.00;101741.06;5495295;26;19934;-87
2024/04/11 08:03:27;;;;;;;;;;;;;;;13.87;100.00;101735.28;5526761;26;19927;-85
2024/04/11 08:05:53;;;;;;;;;;;;;;;13.91;100.00;101735.78;5465563;26;20254;-86
2024/04/11 08:08:20;;;;;;;;;;;;;;;14.29;100.00;101726.00;5495073;26;19939;-88
2024/04/11 08:10:47;;;;;;;;;;;;;;;14.75;100.00;101720.69;5495485;26;19928;-86
2024/04/11 08:13:13;;;;;;;;;;;;;;;14.79;100.00;101724.72;5464782;26;19927;-87
2024/04/11 08:15:40;;;;;;;;;;;;;;;14.60;100.00;101733.28;5525509;26;19939;-86
2024/04/11 08:18:06;;;;;;;;;;;;;;;14.19;100.00;101736.19;5494611;26;19956;-86
2024/04/11 08:20:34;;;;;;;;;;;;;;;13.94;100.00;101744.38;5494979;26;19939;-86
2024/04/11 08:22:59;;;;;;;;;;;;;;;13.80;100.00;101750.50;5525556;26;19976;-86
2024/04/11 08:25:25;;;;;;;;;;;;;;;13.71;100.00;101751.56;5494791;26;19928;-86
2024/04/11 08:27:50;;;;;;;;;;;;;;;13.62;100.00;101761.53;5529209;26;20346;-87
2024/04/11 08:30:16;;;;;;;;;;;;;;;13.81;100.00;101765.69;5498553;26;19936;-86
2024/04/11 08:32:47;;;;;;;;;;;;;;;14.26;100.00;101756.09;5498287;26;19934;-86
2024/04/11 08:35:17;;;;;;;;;;;;;;;14.97;100.00;101769.59;5500263;26;19933;-88
2024/04/11 08:37:44;;;;;;;;;;;;;;;15.44;100.00;101766.69;5499087;26;19934;-86
2024/04/11 08:40:10;;;;;;;;;;;;;;;15.88;100.00;101765.94;5498157;26;19935;-87
2024/04/11 08:42:38;;;;;;;;;;;;;;;15.71;100.00;101753.56;5498470;26;19928;-86
2024/04/11 08:45:06;;;;;;;;;;;;;;;15.60;100.00;101746.72;5498884;26;19927;-87
2024/04/11 08:47:35;;;;;;;;;;;;;;;15.99;100.00;101761.94;5498152;26;19934;-88
2024/04/11 08:50:00;;;;;;;;;;;;;;;16.46;100.00;101755.25;5467862;26;20250;-86
2024/04/11 08:52:31;;;;;;;;;;;;;;;16.68;100.00;101764.25;5529103;26;19928;-86
2024/04/11 08:54:56;;;;;;;;;;;;;;;16.33;100.00;101779.50;5498158;26;19976;-87
2024/04/11 08:57:22;;;;;;;;;;;;;;;16.26;100.00;101784.84;5467530;26;19928;-87
2024/04/11 08:59:48;;;;;;;;;;;;;;;16.19;100.00;101789.31;5467461;26;19978;-87
2024/04/11 09:02:13;;;;;;;;;;;;;;;16.38;100.00;101788.75;5497845;26;19996;-87
2024/04/11 09:04:39;;;;;;;;;;;;;;;16.44;100.00;101788.00;5497718;26;19927;-87
2024/04/11 09:07:04;;;;;;;;;;;;;;;16.15;100.00;101791.59;5498197;26;19927;-87
2024/04/11 09:09:33;;;;;;;;;;;;;;;16.10;100.00;101785.03;5467195;26;20365;-85
2024/04/11 09:11:59;;;;;;;;;;;;;;;16.64;100.00;101780.06;5467978;26;19927;-86
2024/04/11 09:14:25;;;;;;;;;;;;;;;-146.42;100.00;66673.91;5467468;26;19996;-86
2024/04/11 09:17:01;;;;;;;;;;;;;;;-146.42;100.00;66673.91;5498472;26;20003;-86
2024/04/11 09:19:26;;;;;;;;;;;;;;;18.95;86.93;101769.44;5528387;26;20405;-87
2024/04/11 09:21:53;;;;;;;;;;;;;;;18.45;86.85;101767.78;5497530;26;19977;-86
2024/04/11 09:24:18;;;;;;;;;;;;;;;18.53;88.53;101774.09;5467785;26;20380;-86
2024/04/11 09:26:44;;;;;;;;;;;;;;;17.62;92.20;101788.59;5497558;26;19927;-86
2024/04/11 09:29:13;;;;;;;;;;;;;;;17.46;94.07;101775.28;5467086;26;20319;-86
2024/04/11 09:31:38;;;;;;;;;;;;;;;18.01;91.41;101782.63;5528681;26;19946;-86
2024/04/11 09:34:06;;;;;;;;;;;;;;;17.63;92.09;101784.00;5482665;25;19927;-85
2024/04/11 09:36:31;;;;;;;;;;;;;;;17.09;96.02;101780.84;5522919;25;19930;-85
2024/04/11 09:39:04;;;;;;;;;;;;;;;16.80;100.00;101770.06;5472031;26;19931;-86
2024/04/11 09:41:36;;;;;;;;;;;;;;;17.58;94.10;101774.56;5500314;26;20346;-86
2024/04/11 09:44:02;;;;;;;;;;;;;;;18.63;88.50;101769.94;5497374;26;19929;-85
2024/04/11 09:46:28;;;;;;;;;;;;;;;18.88;83.20;101770.22;5497263;26;19935;-86
2024/04/11 09:48:53;;;;;;;;;;;;;;;19.38;82.23;101769.03;5527951;26;19927;-87
2024/04/11 09:51:20;;;;;;;;;;;;;;;19.21;78.37;101761.28;5466719;26;19931;-85
2024/04/11 09:53:46;;;;;;;;;;;;;;;19.01;76.34;101768.59;5528174;26;19928;-85
2024/04/11 09:56:13;;;;;;;;;;;;;;;18.46;80.87;101749.53;5467009;26;19927;-87
2024/04/11 09:58:41;;;;;;;;;;;;;;;18.07;85.45;101761.91;5497439;26;19931;-85
2024/04/11 10:01:20;;;;;;;;;;;;;;;17.73;86.87;101766.31;5496797;26;19934;-85
2024/04/11 10:03:46;;;;;;;;;;;;;;;17.80;87.94;101755.50;5528463;26;20386;-87
2024/04/11 10:06:13;;;;;;;;;;;;;;;17.84;87.96;101756.78;5466714;26;19995;-86
2024/04/11 10:08:42;;;;;;;;;;;;;;;17.77;87.70;101748.53;5528075;26;19936;-86
2024/04/11 10:11:10;;;;;;;;;;;;;;;17.70;87.54;101752.25;5528005;26;19990;-86
2024/04/11 10:13:39;;;;;;;;;;;;;;;17.66;88.74;101749.09;5497145;26;19934;-85
2024/04/11 10:16:05;;;;;;;;;;;;;;;17.43;88.83;101741.19;5527653;26;19927;-86
2024/04/11 10:18:45;;;;;;;;;;;;;;;17.22;92.61;101746.66;5466800;26;19927;-84
2024/04/11 10:21:12;;;;;;;;;;;;;;;17.13;94.64;101751.38;5528136;26;19927;-85
2024/04/11 10:23:48;;;;;;;;;;;;;;;17.23;95.68;101748.34;5499000;26;19934;-85
2024/04/11 10:26:14;;;;;;;;;;;;;;;17.03;97.05;101754.41;5528172;26;19939;-85
2024/04/11 10:28:51;;;;;;;;;;;;;;;17.07;96.93;101753.00;5496613;26;19999;-84
2024/04/11 10:31:25;;;;;;;;;;;;;;;17.66;93.08;101740.09;5499623;26;20369;-84
2024/04/11 10:34:10;;;;;;;;;;;;;;;18.52;91.02;101742.44;5523636;26;19938;-85
2024/04/11 10:36:36;;;;;;;;;;;;;;;18.81;86.44;101742.13;5498863;26;19935;-85
2024/04/11 10:39:08;;;;;;;;;;;;;;;18.54;87.17;101745.81;5496461;26;19935;-85
2024/04/11 10:41:33;;;;;;;;;;;;;;;18.29;88.75;101743.63;5467435;26;19935;-84
2024/04/11 10:44:02;;;;;;;;;;;;;;;18.23;90.26;101748.00;5466084;26;19927;-84
2024/04/11 10:46:30;;;;;;;;;;;;;;;18.05;90.92;101757.72;5497584;26;20003;-86
2024/04/11 10:49:08;;;;;;;;;;;;;;;17.65;93.52;101752.88;5467258;26;19928;-85
2024/04/11 10:51:37;;;;;;;;;;;;;;;17.16;98.13;101736.56;5527493;26;20366;-85
2024/04/11 10:54:09;;;;;;;;;;;;;;;16.87;100.00;101733.78;5496186;26;19927;-84
2024/04/11 10:56:44;;;;;;;;;;;;;;;16.55;100.00;101735.09;5497751;26;19960;-85
2024/04/11 10:59:17;;;;;;;;;;;;;;;16.34;100.00;101741.31;5496168;26;20267;-85
2024/04/11 11:01:47;;;;;;;;;;;;;;;16.00;100.00;101747.31;5498703;26;20246;-84
2024/04/11 11:04:15;;;;;;;;;;;;;;;15.75;100.00;101739.47;5466457;26;20285;-85
2024/04/11 11:06:44;;;;;;;;;;;;;;;15.74;100.00;101736.94;5497403;26;19928;-86
2024/04/11 11:09:13;;;;;;;;;;;;;;;15.72;100.00;101742.56;5496130;26;20380;-85
2024/04/11 11:11:42;;;;;;;;;;;;;;;15.94;100.00;101739.94;5497136;26;19939;-85
2024/04/11 11:14:08;;;;;;;;;;;;;;;16.11;100.00;101743.28;5465743;26;19934;-85
2024/04/11 11:16:33;;;;;;;;;;;;;;;16.20;100.00;101736.75;5527180;26;19927;-85
2024/04/11 11:18:59;;;;;;;;;;;;;;;16.29;100.00;101740.19;5495960;26;19934;-85
2024/04/11 11:21:25;;;;;;;;;;;;;;;16.14;100.00;101743.78;5495898;26;19934;-85
2024/04/11 11:23:59;;;;;;;;;;;;;;;15.94;100.00;101743.50;5496185;26;19927;-84
2024/04/11 11:26:35;;;;;;;;;;;;;;;15.90;100.00;101746.75;5526626;26;20405;-85
2024/04/11 11:29:07;;;;;;;;;;;;;;;15.82;100.00;101743.13;5526559;26;19934;-84
2024/04/11 11:31:36;;;;;;;;;;;;;;;15.81;100.00;101735.16;5526374;26;20385;-84
2024/04/11 11:34:14;;;;;;;;;;;;;;;15.71;100.00;101740.03;5498082;26;19928;-85
2024/04/11 11:36:40;;;;;;;;;;;;;;;15.71;100.00;101732.72;5498821;26;19935;-85
2024/04/11 11:39:09;;;;;;;;;;;;;;;15.81;100.00;101736.00;5526608;26;19928;-85
2024/04/11 11:41:37;;;;;;;;;;;;;;;15.80;100.00;101742.47;5496602;26;19934;-85
2024/04/11 11:44:17;;;;;;;;;;;;;;;15.83;100.00;101727.69;5496383;26;19934;-85
2024/04/11 11:46:49;;;;;;;;;;;;;;;15.96;100.00;101729.75;5499575;26;19934;-85
2024/04/11 11:49:17;;;;;;;;;;;;;;;16.06;100.00;101730.28;5496586;26;19928;-85
2024/04/11 11:51:47;;;;;;;;;;;;;;;16.15;100.00;101731.88;5496222;26;19927;-85
2024/04/11 11:54:12;;;;;;;;;;;;;;;16.27;100.00;101730.38;5526125;26;19951;-85
2024/04/11 11:56:42;;;;;;;;;;;;;;;16.15;100.00;101731.06;5495552;26;20317;-85
2024/04/11 11:59:11;;;;;;;;;;;;;;;16.05;100.00;101725.91;5495317;26;19927;-86
2024/04/11 12:01:43;;;;;;;;;;;;;;;16.07;100.00;101732.00;5464400;26;19938;-86
2024/04/11 12:04:10;;;;;;;;;;;;;;;16.00;100.00;101733.75;5496897;26;19935;-85
2024/04/11 12:06:35;;;;;;;;;;;;;;;15.77;100.00;101731.13;5506822;25;19924;-84
2024/04/11 12:09:10;;;;;;;;;;;;;;;15.58;100.00;101732.50;5509741;25;20366;-86
2024/04/11 12:11:54;;;;;;;;;;;;;;;15.56;100.00;101729.16;5471761;26;20167;-85
2024/04/11 12:14:28;;;;;;;;;;;;;;;15.65;100.00;101711.75;5496878;26;20376;-85
2024/04/11 12:16:56;;;;;;;;;;;;;;;15.72;100.00;101715.44;5469051;26;19927;-86
2024/04/11 12:19:28;;;;;;;;;;;;;;;15.62;100.00;101695.88;5497087;26;19935;-85
2024/04/11 12:22:06;;;;;;;;;;;;;;;15.40;100.00;101686.78;5527645;26;19927;-85
2024/04/11 12:24:32;;;;;;;;;;;;;;;14.91;100.00;101681.81;5498902;26;19928;-86
2024/04/11 12:26:59;;;;;;;;;;;;;;;14.66;100.00;101692.84;5526913;26;20293;-84
2024/04/11 12:29:26;;;;;;;;;;;;;;;14.48;100.00;101695.78;5496294;26;19936;-86